Time;durP1;ratioP1;P1;durP2;ratioP2;P2;SDS_P1;SDS_P2;PMS_P1;PMS_P2;Temp;Humidity;BMP_temperature;BMP_pressure;BME280_temperature;BME280_humidity;BME280_pressure;Samples;Min_cycle;Max_cycle;Signal;HPM_P1;HPM_P2
2024/01/14 00:00:06;;;;;;;9.70;0.80;;;4.30;86.70;;;;;;5130533;27;20053;-71
2024/01/14 00:02:35;;;;;;;6.97;0.80;;;4.30;86.60;;;;;;5148231;27;20043;-71
2024/01/14 00:05:02;;;;;;;6.63;0.95;;;4.30;86.60;;;;;;5129342;27;20691;-71
2024/01/14 00:07:30;;;;;;;4.25;0.50;;;4.30;86.60;;;;;;5129656;27;20055;-71
2024/01/14 00:09:58;;;;;;;5.80;0.63;;;4.30;86.80;;;;;;5129720;27;20070;-71
2024/01/14 00:12:26;;;;;;;7.43;1.20;;;4.30;86.80;;;;;;5151212;27;20398;-71
2024/01/14 00:14:53;;;;;;;8.93;1.60;;;4.30;86.80;;;;;;5149640;27;20063;-71
2024/01/14 00:17:21;;;;;;;6.32;0.93;;;4.30;86.70;;;;;;5128893;27;20055;-71
2024/01/14 00:19:48;;;;;;;5.95;0.93;;;4.30;86.80;;;;;;5129096;27;20433;-71
2024/01/14 00:22:16;;;;;;;7.32;0.73;;;4.30;86.60;;;;;;5130180;27;20082;-71
2024/01/14 00:24:44;;;;;;;6.33;0.83;;;4.30;86.60;;;;;;5167741;27;20046;-70
2024/01/14 00:27:12;;;;;;;8.52;1.00;;;4.30;86.60;;;;;;5142969;27;20046;-71
2024/01/14 00:29:39;;;;;;;7.05;1.10;;;4.30;86.60;;;;;;5147123;27;20050;-71
2024/01/14 00:32:07;;;;;;;7.80;0.60;;;4.30;86.50;;;;;;5147412;27;20058;-71
2024/01/14 00:34:34;;;;;;;9.55;1.20;;;4.20;86.60;;;;;;5130945;27;20043;-71
2024/01/14 00:37:01;;;;;;;7.27;1.20;;;4.20;86.60;;;;;;5161235;27;20046;-71
2024/01/14 00:39:29;;;;;;;7.18;0.80;;;4.20;86.70;;;;;;5142786;27;20146;-71
2024/01/14 00:41:57;;;;;;;10.18;0.70;;;4.20;86.80;;;;;;5139955;27;20133;-71
2024/01/14 00:44:24;;;;;;;6.97;0.60;;;4.20;86.80;;;;;;5145837;27;20130;-71
2024/01/14 00:46:52;;;;;;;3.25;0.30;;;4.20;86.90;;;;;;5123555;27;20071;-71
2024/01/14 00:49:19;;;;;;;5.37;0.83;;;4.20;86.90;;;;;;5143330;27;20118;-71
2024/01/14 00:51:46;;;;;;;4.90;0.60;;;4.20;87.00;;;;;;5123215;27;20871;-71
2024/01/14 00:54:13;;;;;;;3.60;0.68;;;4.20;87.10;;;;;;5146288;27;20074;-71
2024/01/14 00:56:41;;;;;;;4.95;0.73;;;4.20;87.10;;;;;;5140003;27;20122;-71
2024/01/14 00:59:10;;;;;;;7.22;0.68;;;4.20;87.10;;;;;;5145169;27;20074;-70
2024/01/14 01:01:37;;;;;;;8.77;1.10;;;4.20;87.10;;;;;;5144331;27;20057;-71
2024/01/14 01:04:04;;;;;;;6.80;0.65;;;4.10;87.10;;;;;;5149688;27;20069;-71
2024/01/14 01:06:31;;;;;;;8.07;1.20;;;4.20;87.20;;;;;;5126514;27;20055;-71
2024/01/14 01:08:58;;;;;;;7.13;0.68;;;4.10;87.20;;;;;;5127852;27;20134;-71
2024/01/14 01:11:25;;;;;;;4.18;0.20;;;4.10;87.20;;;;;;5145379;27;20108;-71
2024/01/14 01:13:52;;;;;;;5.60;0.60;;;4.10;87.40;;;;;;5127358;27;20047;-71
2024/01/14 01:16:20;;;;;;;6.57;0.80;;;4.10;87.50;;;;;;5125696;27;20141;-71
2024/01/14 01:18:47;;;;;;;6.95;0.70;;;4.10;87.70;;;;;;5126498;27;20084;-71
2024/01/14 01:21:19;;;;;;;1.75;0.32;;;4.20;87.90;;;;;;5126424;27;20142;-71
2024/01/14 01:23:46;;;;;;;7.28;0.40;;;4.20;88.00;;;;;;5126348;27;20047;-71
2024/01/14 01:26:13;;;;;;;5.30;0.50;;;4.20;88.10;;;;;;5126519;27;20159;-70
2024/01/14 01:28:39;;;;;;;2.00;0.82;;;4.30;88.30;;;;;;5145350;27;20052;-71
2024/01/14 01:31:07;;;;;;;7.03;0.50;;;4.30;88.40;;;;;;5126636;27;20131;-71
2024/01/14 01:33:35;;;;;;;5.05;0.52;;;4.30;88.50;;;;;;5145882;27;20138;-71
2024/01/14 01:36:02;;;;;;;9.45;0.77;;;4.30;88.60;;;;;;5127070;27;20051;-71
2024/01/14 01:38:29;;;;;;;1.73;0.30;;;4.30;88.60;;;;;;5144566;27;20196;-71
2024/01/14 01:40:56;;;;;;;6.40;0.60;;;4.40;88.60;;;;;;5126758;27;21100;-71
2024/01/14 01:43:23;;;;;;;4.50;0.55;;;4.40;88.50;;;;;;5144818;27;20047;-71
2024/01/14 01:45:50;;;;;;;4.43;0.50;;;4.40;88.30;;;;;;5128490;27;20125;-71
2024/01/14 01:48:19;;;;;;;6.65;0.35;;;4.40;88.20;;;;;;5165274;27;20086;-71
2024/01/14 01:50:47;;;;;;;9.60;0.57;;;4.40;88.00;;;;;;5121546;27;20518;-71
2024/01/14 01:53:16;;;;;;;3.15;0.25;;;4.40;88.00;;;;;;5128081;27;20091;-71
2024/01/14 01:55:43;;;;;;;5.75;0.50;;;4.40;88.00;;;;;;5128659;27;21025;-71
2024/01/14 01:58:11;;;;;;;5.35;0.50;;;4.50;87.90;;;;;;5148704;27;20140;-71
2024/01/14 02:00:39;;;;;;;5.47;0.80;;;4.50;87.80;;;;;;5157251;27;20133;-70
2024/01/14 02:03:08;;;;;;;5.07;0.33;;;4.50;87.60;;;;;;5149913;27;20127;-71
2024/01/14 02:05:40;;;;;;;2.47;0.22;;;4.50;87.60;;;;;;5150433;27;20162;-71
2024/01/14 02:08:08;;;;;;;5.78;0.52;;;4.50;87.50;;;;;;5145738;27;20219;-71
2024/01/14 02:10:36;;;;;;;5.53;0.82;;;4.50;87.40;;;;;;5131545;27;20055;-72
2024/01/14 02:13:04;;;;;;;6.13;0.60;;;4.50;87.20;;;;;;5151282;27;20074;-71
2024/01/14 02:15:31;;;;;;;4.13;0.60;;;4.50;87.20;;;;;;5114645;27;20286;-70
2024/01/14 02:17:58;;;;;;;5.28;0.30;;;4.40;87.10;;;;;;5129430;27;20051;-71
2024/01/14 02:20:25;;;;;;;4.05;0.40;;;4.40;87.20;;;;;;5128497;27;20595;-71
2024/01/14 02:22:54;;;;;;;5.47;0.63;;;4.40;87.00;;;;;;5130613;27;20130;-71
2024/01/14 02:25:23;;;;;;;5.95;0.70;;;4.40;87.00;;;;;;5139688;27;20125;-71
2024/01/14 02:27:50;;;;;;;4.53;0.50;;;4.40;86.90;;;;;;5130417;27;20574;-71
2024/01/14 02:30:18;;;;;;;7.05;0.90;;;4.30;86.90;;;;;;5128764;27;20142;-71
2024/01/14 02:32:48;;;;;;;5.35;0.70;;;4.30;87.00;;;;;;5130185;27;20541;-71
2024/01/14 02:35:16;;;;;;;18.10;1.45;;;4.30;87.10;;;;;;5138371;27;20047;-71
2024/01/14 02:37:44;;;;;;;5.63;0.57;;;4.30;87.20;;;;;;5149441;27;20529;-71
2024/01/14 02:40:11;;;;;;;8.57;1.37;;;4.30;87.40;;;;;;5159285;27;20055;-71
2024/01/14 02:42:40;;;;;;;5.30;0.43;;;4.30;87.60;;;;;;5129493;27;20572;-71
2024/01/14 02:45:08;;;;;;;6.47;0.77;;;4.30;87.60;;;;;;5136068;27;20078;-71
2024/01/14 02:47:35;;;;;;;7.60;0.90;;;4.30;87.70;;;;;;5150276;27;20135;-71
2024/01/14 02:50:02;;;;;;;5.30;0.30;;;4.30;87.80;;;;;;5162104;27;20142;-71
2024/01/14 02:52:29;;;;;;;5.03;0.63;;;4.30;87.90;;;;;;5147864;27;20075;-71
2024/01/14 02:54:56;;;;;;;7.57;0.95;;;4.40;88.00;;;;;;5148556;27;20629;-71
2024/01/14 02:57:24;;;;;;;6.90;0.80;;;4.40;88.00;;;;;;5129536;27;20078;-71
2024/01/14 02:59:52;;;;;;;8.40;0.88;;;4.40;88.00;;;;;;5127741;27;20127;-71
2024/01/14 03:02:19;;;;;;;2.90;0.20;;;4.30;88.00;;;;;;5148960;27;20050;-71
2024/01/14 03:04:46;;;;;;;2.73;0.33;;;4.30;88.00;;;;;;5165809;27;20122;-71
2024/01/14 03:07:13;;;;;;;2.80;0.22;;;4.30;87.90;;;;;;5129561;27;20833;-71
2024/01/14 03:09:40;;;;;;;5.57;0.50;;;4.30;87.80;;;;;;5148522;27;20124;-71
2024/01/14 03:12:07;;;;;;;6.60;0.50;;;4.30;87.70;;;;;;5146540;27;20162;-71
2024/01/14 03:14:35;;;;;;;6.80;0.57;;;4.30;87.70;;;;;;5129612;27;20513;-71
2024/01/14 03:17:03;;;;;;;4.97;0.50;;;4.30;87.70;;;;;;5146921;27;20051;-71
2024/01/14 03:19:30;;;;;;;4.95;0.47;;;4.20;87.60;;;;;;5144820;27;20100;-71
2024/01/14 03:21:57;;;;;;;5.45;0.30;;;4.20;87.60;;;;;;5146212;27;20128;-71
2024/01/14 03:24:24;;;;;;;5.15;0.45;;;4.20;87.60;;;;;;5148248;27;20059;-71
2024/01/14 03:26:51;;;;;;;7.40;0.47;;;4.10;87.60;;;;;;5146991;27;20141;-71
2024/01/14 03:29:18;;;;;;;3.40;0.43;;;4.10;87.70;;;;;;5129039;27;20162;-71
2024/01/14 03:31:45;;;;;;;5.97;0.35;;;4.10;87.60;;;;;;5146458;27;20090;-71
2024/01/14 03:34:13;;;;;;;5.18;0.52;;;4.10;87.60;;;;;;5127908;27;20142;-71
2024/01/14 03:36:40;;;;;;;8.57;0.90;;;4.10;87.50;;;;;;5128489;27;20546;-71
2024/01/14 03:39:07;;;;;;;6.47;0.73;;;4.00;87.40;;;;;;5146540;27;20137;-71
2024/01/14 03:41:34;;;;;;;10.13;0.40;;;4.00;87.40;;;;;;5131027;27;20146;-71
2024/01/14 03:44:01;;;;;;;10.65;0.75;;;4.00;87.30;;;;;;5112217;27;20139;-71
2024/01/14 03:46:28;;;;;;;4.38;0.50;;;3.90;87.40;;;;;;5147211;27;20119;-71
2024/01/14 03:48:55;;;;;;;7.80;0.40;;;3.90;87.50;;;;;;5128110;27;20055;-71
2024/01/14 03:51:23;;;;;;;9.02;0.70;;;3.90;87.50;;;;;;5146828;27;20055;-71
2024/01/14 03:53:50;;;;;;;8.50;0.50;;;3.90;87.50;;;;;;5147865;27;20120;-71
2024/01/14 03:56:18;;;;;;;4.65;0.45;;;3.90;87.50;;;;;;5128139;27;20127;-71
2024/01/14 03:58:45;;;;;;;5.05;0.60;;;3.90;87.60;;;;;;5162274;27;20553;-71
2024/01/14 04:01:17;;;;;;;5.43;0.68;;;3.90;87.70;;;;;;5132745;27;20054;-71
2024/01/14 04:03:44;;;;;;;9.13;0.77;;;3.90;87.70;;;;;;5127891;27;20059;-71
2024/01/14 04:06:11;;;;;;;4.97;0.70;;;3.80;87.80;;;;;;5129020;27;20052;-71
2024/01/14 04:08:40;;;;;;;5.47;0.50;;;3.80;88.00;;;;;;5147722;27;20051;-71
2024/01/14 04:11:07;;;;;;;7.35;0.68;;;3.80;88.00;;;;;;5133873;27;20134;-71
2024/01/14 04:13:35;;;;;;;6.45;0.63;;;3.80;88.10;;;;;;5145963;27;20051;-71
2024/01/14 04:16:02;;;;;;;4.32;0.63;;;3.70;88.20;;;;;;5144819;27;20219;-71
2024/01/14 04:18:29;;;;;;;7.27;0.63;;;3.70;88.20;;;;;;5126519;27;20134;-71
2024/01/14 04:20:57;;;;;;;5.13;0.47;;;3.70;88.30;;;;;;5127270;27;20061;-71
2024/01/14 04:23:24;;;;;;;5.38;0.50;;;3.70;88.30;;;;;;5145805;27;20081;-71
2024/01/14 04:25:52;;;;;;;5.68;0.60;;;3.70;88.30;;;;;;5137161;27;20080;-71
2024/01/14 04:28:20;;;;;;;4.25;0.63;;;3.70;88.30;;;;;;5148867;27;20133;-71
2024/01/14 04:30:47;;;;;;;5.70;0.40;;;3.70;88.30;;;;;;5148457;27;20504;-71
2024/01/14 04:33:14;;;;;;;11.43;0.70;;;3.70;88.30;;;;;;5165147;27;20074;-71
2024/01/14 04:35:41;;;;;;;6.15;0.38;;;3.70;88.30;;;;;;5139203;27;20159;-71
2024/01/14 04:38:08;;;;;;;5.80;0.50;;;3.70;88.40;;;;;;5146763;27;20134;-71
2024/01/14 04:40:35;;;;;;;3.20;0.40;;;3.70;88.50;;;;;;5127251;27;20073;-71
2024/01/14 04:43:05;;;;;;;7.37;0.87;;;3.70;88.60;;;;;;5159617;27;20055;-71
2024/01/14 04:45:34;;;;;;;3.17;0.25;;;3.70;88.60;;;;;;5141595;27;20055;-71
2024/01/14 04:48:01;;;;;;;7.13;0.70;;;3.70;88.70;;;;;;5145811;27;20054;-71
2024/01/14 04:50:28;;;;;;;3.67;0.25;;;3.70;88.70;;;;;;5107631;27;20058;-71
2024/01/14 04:52:55;;;;;;;7.55;0.30;;;3.70;88.80;;;;;;5110105;27;20498;-71
2024/01/14 04:55:22;;;;;;;7.43;0.70;;;3.70;88.80;;;;;;5127037;27;20150;-71
2024/01/14 04:57:49;;;;;;;4.00;0.30;;;3.70;88.80;;;;;;5127348;27;20082;-71
2024/01/14 05:00:18;;;;;;;3.95;0.50;;;3.70;89.00;;;;;;5124742;27;20051;-71
2024/01/14 05:02:45;;;;;;;6.78;0.50;;;3.70;89.10;;;;;;5145509;27;20062;-71
2024/01/14 05:05:12;;;;;;;4.88;0.28;;;3.70;89.10;;;;;;5109406;27;20150;-71
2024/01/14 05:07:39;;;;;;;5.50;0.30;;;3.70;89.20;;;;;;5162657;27;20516;-71
2024/01/14 05:10:07;;;;;;;3.90;0.30;;;3.70;89.20;;;;;;5147658;27;20074;-71
2024/01/14 05:12:34;;;;;;;5.88;0.80;;;3.70;89.30;;;;;;5166979;27;20107;-71
2024/01/14 05:15:01;;;;;;;12.88;0.60;;;3.70;89.30;;;;;;5124508;27;20601;-71
2024/01/14 05:17:30;;;;;;;5.57;0.40;;;3.70;89.30;;;;;;5145369;27;20075;-71
2024/01/14 05:19:57;;;;;;;2.97;0.40;;;3.70;89.20;;;;;;5145164;27;20100;-71
2024/01/14 05:22:24;;;;;;;3.15;0.10;;;3.70;89.30;;;;;;5126857;27;20138;-71
2024/01/14 05:24:51;;;;;;;5.20;0.57;;;3.70;89.30;;;;;;5145815;27;20127;-71
2024/01/14 05:27:18;;;;;;;4.78;0.35;;;3.70;89.20;;;;;;5145797;27;20175;-71
2024/01/14 05:29:46;;;;;;;4.20;0.40;;;3.60;89.20;;;;;;5129991;27;20138;-71
2024/01/14 05:32:14;;;;;;;3.63;0.40;;;3.60;89.20;;;;;;5148154;27;20078;-71
2024/01/14 05:34:43;;;;;;;4.60;0.43;;;3.60;89.30;;;;;;5130794;27;20813;-71
2024/01/14 05:37:10;;;;;;;3.50;0.20;;;3.60;89.30;;;;;;5148170;27;20607;-71
2024/01/14 05:39:37;;;;;;;6.25;0.30;;;3.60;89.30;;;;;;5130320;27;20047;-71
2024/01/14 05:42:05;;;;;;;2.58;0.30;;;3.60;89.20;;;;;;5128740;27;20075;-71
2024/01/14 05:44:32;;;;;;;4.53;0.30;;;3.60;89.10;;;;;;5128646;27;20079;-71
2024/01/14 05:47:00;;;;;;;4.40;0.50;;;3.60;89.20;;;;;;5129549;27;20076;-71
2024/01/14 05:49:27;;;;;;;5.78;0.30;;;3.60;89.20;;;;;;5130728;27;20073;-71
2024/01/14 05:51:55;;;;;;;4.30;0.45;;;3.60;89.20;;;;;;5129935;27;21171;-71
2024/01/14 05:54:22;;;;;;;5.35;0.40;;;3.60;89.20;;;;;;5130295;27;20994;-71
2024/01/14 05:56:49;;;;;;;5.80;0.40;;;3.60;89.30;;;;;;5130138;27;20130;-71
2024/01/14 05:59:16;;;;;;;4.03;0.50;;;3.70;89.40;;;;;;5149556;27;20158;-71
2024/01/14 06:01:43;;;;;;;8.27;0.70;;;3.70;89.40;;;;;;5129192;27;20465;-71
2024/01/14 06:04:10;;;;;;;4.93;0.50;;;3.70;89.50;;;;;;5130199;27;20122;-71
2024/01/14 06:06:37;;;;;;;3.28;0.30;;;3.70;89.50;;;;;;5141447;27;20054;-71
2024/01/14 06:09:05;;;;;;;5.60;0.80;;;3.70;89.50;;;;;;5150394;27;20192;-71
2024/01/14 06:11:32;;;;;;;3.72;0.40;;;3.80;89.60;;;;;;5164300;27;20138;-71
2024/01/14 06:13:59;;;;;;;6.03;0.30;;;3.80;89.60;;;;;;5148847;27;20142;-71
2024/01/14 06:16:26;;;;;;;2.88;0.40;;;3.80;89.60;;;;;;5146983;27;20047;-71
2024/01/14 06:18:54;;;;;;;7.75;0.57;;;3.90;89.60;;;;;;5127139;27;20055;-71
2024/01/14 06:21:21;;;;;;;8.87;0.70;;;3.90;89.70;;;;;;5126268;27;20055;-71
2024/01/14 06:23:49;;;;;;;8.50;0.70;;;3.90;89.70;;;;;;5145593;27;20604;-71
2024/01/14 06:26:18;;;;;;;6.03;0.35;;;3.90;89.70;;;;;;5127546;27;20051;-71
2024/01/14 06:28:45;;;;;;;3.90;0.30;;;3.90;89.80;;;;;;5146773;27;20079;-71
2024/01/14 06:31:12;;;;;;;6.30;0.40;;;3.90;89.80;;;;;;5141456;27;20055;-71
2024/01/14 06:33:40;;;;;;;6.23;0.50;;;3.90;89.80;;;;;;5145703;27;20955;-71
2024/01/14 06:36:07;;;;;;;6.65;0.35;;;3.90;89.80;;;;;;5126923;27;20051;-71
2024/01/14 06:38:34;;;;;;;7.75;0.70;;;3.90;89.70;;;;;;5146518;27;20089;-71
2024/01/14 06:41:01;;;;;;;7.95;0.47;;;3.90;89.70;;;;;;5127289;27;20494;-71
2024/01/14 06:43:30;;;;;;;3.88;0.38;;;3.90;89.60;;;;;;5128351;27;20404;-71
2024/01/14 06:45:57;;;;;;;6.10;0.50;;;3.90;89.60;;;;;;5109920;27;20047;-71
2024/01/14 06:48:24;;;;;;;7.50;0.50;;;3.90;89.70;;;;;;5127299;27;20074;-71
2024/01/14 06:50:51;;;;;;;4.50;0.30;;;3.90;89.70;;;;;;5146158;27;20142;-71
2024/01/14 06:53:18;;;;;;;5.80;0.50;;;3.90;89.70;;;;;;5147845;27;20146;-71
2024/01/14 06:55:45;;;;;;;5.70;1.10;;;3.90;89.60;;;;;;5147674;27;20043;-71
2024/01/14 06:58:12;;;;;;;8.57;0.90;;;3.90;89.70;;;;;;5128830;27;20143;-71
2024/01/14 07:00:40;;;;;;;5.70;0.40;;;3.90;89.70;;;;;;5130431;27;20063;-71
2024/01/14 07:03:07;;;;;;;6.35;0.70;;;3.90;89.70;;;;;;5150855;27;20085;-71
2024/01/14 07:05:34;;;;;;;5.88;0.40;;;3.90;89.70;;;;;;5129461;27;20138;-71
2024/01/14 07:08:02;;;;;;;10.07;1.15;;;3.90;89.50;;;;;;5128766;27;20860;-71
2024/01/14 07:10:29;;;;;;;6.60;0.70;;;3.90;89.50;;;;;;5126734;27;20749;-71
2024/01/14 07:12:56;;;;;;;5.75;0.43;;;3.90;89.30;;;;;;5134809;27;20091;-71
2024/01/14 07:15:22;;;;;;;3.70;0.35;;;3.90;89.10;;;;;;5147750;27;20153;-71
2024/01/14 07:17:51;;;;;;;4.85;0.85;;;3.90;89.00;;;;;;5130653;27;20055;-71
2024/01/14 07:20:18;;;;;;;4.85;0.50;;;3.90;88.90;;;;;;5145190;27;20157;-71
2024/01/14 07:22:45;;;;;;;5.63;0.50;;;3.90;89.00;;;;;;5133947;27;20149;-71
2024/01/14 07:25:12;;;;;;;4.57;0.60;;;3.90;88.90;;;;;;5148722;27;20077;-71
2024/01/14 07:27:39;;;;;;;5.40;0.40;;;3.90;89.00;;;;;;5150938;27;20059;-71
2024/01/14 07:30:07;;;;;;;4.95;0.35;;;3.90;89.00;;;;;;5126200;27;20171;-71
2024/01/14 07:32:34;;;;;;;5.38;0.80;;;3.90;89.10;;;;;;5126563;27;20058;-71
2024/01/14 07:35:04;;;;;;;6.67;0.40;;;3.90;89.10;;;;;;5127655;27;20104;-71
2024/01/14 07:37:33;;;;;;;3.15;0.30;;;3.90;89.30;;;;;;5110846;27;20070;-71
2024/01/14 07:40:00;;;;;;;5.85;0.30;;;3.90;89.30;;;;;;5131581;27;20047;-71
2024/01/14 07:42:27;;;;;;;5.65;0.40;;;3.90;89.50;;;;;;5126737;27;20126;-71
2024/01/14 07:44:54;;;;;;;4.78;0.40;;;3.90;89.50;;;;;;5110347;27;20154;-71
2024/01/14 07:47:22;;;;;;;5.67;0.70;;;3.90;89.60;;;;;;5146262;27;20082;-71
2024/01/14 07:49:49;;;;;;;4.43;0.35;;;3.90;89.70;;;;;;5126341;27;20154;-71
2024/01/14 07:52:18;;;;;;;2.25;0.30;;;3.90;89.80;;;;;;5157066;27;20068;-71
2024/01/14 07:54:45;;;;;;;2.58;0.10;;;3.90;90.00;;;;;;5148221;27;20043;-71
2024/01/14 07:57:12;;;;;;;4.05;0.30;;;3.90;90.00;;;;;;5148271;27;20093;-71
2024/01/14 07:59:39;;;;;;;5.53;0.50;;;3.90;90.00;;;;;;5166197;27;20141;-71
2024/01/14 08:02:07;;;;;;;3.67;0.40;;;3.90;90.20;;;;;;5158974;27;20826;-71
2024/01/14 08:04:34;;;;;;;3.47;0.77;;;3.90;90.30;;;;;;5128901;27;20055;-71
2024/01/14 08:07:01;;;;;;;4.43;0.20;;;3.90;90.30;;;;;;5128021;27;20047;-71
2024/01/14 08:09:29;;;;;;;7.07;0.47;;;3.90;90.50;;;;;;5111358;27;20154;-71
2024/01/14 08:11:56;;;;;;;5.27;0.57;;;3.90;90.50;;;;;;5110878;27;20122;-71
2024/01/14 08:14:24;;;;;;;7.05;0.65;;;3.90;90.50;;;;;;5128320;27;20104;-71
2024/01/14 08:16:51;;;;;;;4.82;0.40;;;3.90;90.60;;;;;;5143126;27;20077;-71
2024/01/14 08:19:20;;;;;;;3.30;0.30;;;3.90;90.60;;;;;;5128897;27;20113;-71
2024/01/14 08:21:47;;;;;;;7.05;0.60;;;3.90;90.60;;;;;;5127881;27;20141;-71
2024/01/14 08:24:14;;;;;;;4.23;0.40;;;3.90;90.70;;;;;;5127981;27;20051;-71
2024/01/14 08:26:46;;;;;;;4.55;0.38;;;3.90;90.60;;;;;;5127896;27;20078;-71
2024/01/14 08:29:14;;;;;;;4.80;0.85;;;3.90;90.70;;;;;;5128138;27;20063;-71
2024/01/14 08:31:41;;;;;;;6.45;0.50;;;3.90;90.70;;;;;;5127484;27;20419;-72
2024/01/14 08:34:08;;;;;;;6.60;0.68;;;3.90;90.60;;;;;;5127914;27;20047;-71
2024/01/14 08:36:35;;;;;;;5.37;0.30;;;4.00;90.60;;;;;;5146752;27;20061;-71
2024/01/14 08:39:03;;;;;;;4.40;0.45;;;4.00;90.60;;;;;;5128419;27;20741;-71
2024/01/14 08:41:31;;;;;;;5.15;0.55;;;4.00;90.60;;;;;;5138806;27;20150;-71
2024/01/14 08:44:04;;;;;;;5.15;0.30;;;4.00;90.60;;;;;;5147505;27;20058;-71
2024/01/14 08:46:31;;;;;;;6.00;0.52;;;4.00;90.50;;;;;;5145969;27;20042;-71
2024/01/14 08:48:58;;;;;;;5.10;0.30;;;4.00;90.50;;;;;;5128717;27;20059;-71
2024/01/14 08:51:25;;;;;;;4.55;0.40;;;4.00;90.40;;;;;;5125370;27;20039;-71
2024/01/14 08:53:52;;;;;;;2.88;0.32;;;4.00;90.30;;;;;;5127716;27;20078;-71
2024/01/14 08:56:19;;;;;;;2.63;0.20;;;4.00;90.30;;;;;;5128000;27;20078;-71
2024/01/14 08:58:47;;;;;;;4.38;0.30;;;4.00;90.30;;;;;;5146202;27;20719;-71
2024/01/14 09:01:17;;;;;;;5.27;0.30;;;3.90;90.30;;;;;;5146523;27;20058;-71
2024/01/14 09:03:44;;;;;;;4.63;0.30;;;4.00;90.30;;;;;;5122521;27;20277;-71
2024/01/14 09:06:10;;;;;;;4.32;0.40;;;4.00;90.20;;;;;;5151762;27;20135;-71
2024/01/14 09:08:37;;;;;;;4.28;0.20;;;4.00;90.30;;;;;;5167185;27;20062;-71
2024/01/14 09:11:05;;;;;;;3.92;0.30;;;4.00;90.30;;;;;;5169566;27;20115;-71
2024/01/14 09:13:32;;;;;;;4.47;0.40;;;4.00;90.40;;;;;;5133115;27;20051;-71
2024/01/14 09:15:59;;;;;;;5.90;0.60;;;4.00;90.30;;;;;;5148871;27;20137;-71
2024/01/14 09:18:27;;;;;;;5.65;0.70;;;3.90;90.30;;;;;;5147966;27;20070;-71
2024/01/14 09:20:54;;;;;;;4.65;0.75;;;4.00;90.40;;;;;;5169128;27;20134;-71
2024/01/14 09:23:21;;;;;;;3.88;0.35;;;4.00;90.40;;;;;;5130662;27;20050;-71
2024/01/14 09:25:48;;;;;;;3.80;0.40;;;4.10;90.50;;;;;;5147232;27;20138;-71
2024/01/14 09:28:15;;;;;;;3.97;0.25;;;4.10;90.30;;;;;;5147960;27;20173;-71
2024/01/14 09:30:42;;;;;;;6.65;0.30;;;4.10;90.40;;;;;;5168553;27;20699;-71
2024/01/14 09:33:09;;;;;;;3.03;0.30;;;4.10;90.40;;;;;;5165604;27;20579;-71
2024/01/14 09:35:38;;;;;;;4.28;0.45;;;4.10;90.40;;;;;;5147071;27;20104;-71
2024/01/14 09:38:05;;;;;;;2.00;0.20;;;4.10;90.40;;;;;;5149441;27;20061;-71
2024/01/14 09:40:34;;;;;;;2.65;0.20;;;4.10;90.40;;;;;;5162648;27;20082;-72
2024/01/14 09:43:04;;;;;;;2.20;0.38;;;4.10;90.30;;;;;;5147097;27;20043;-72
2024/01/14 09:45:34;;;;;;;2.28;0.22;;;4.10;90.30;;;;;;5144535;27;20105;-70
2024/01/14 09:48:01;;;;;;;4.00;0.30;;;4.10;90.40;;;;;;5144932;27;20732;-69
2024/01/14 09:50:29;;;;;;;3.33;0.20;;;4.10;90.30;;;;;;5146137;27;20058;-70
2024/01/14 09:52:59;;;;;;;4.20;0.40;;;4.10;90.40;;;;;;5144198;27;20050;-71
2024/01/14 09:55:26;;;;;;;2.08;0.20;;;4.20;90.50;;;;;;5146617;27;20062;-69
2024/01/14 09:57:53;;;;;;;1.85;0.25;;;4.20;90.60;;;;;;5148600;27;20126;-71
2024/01/14 10:00:23;;;;;;;3.10;0.17;;;4.20;90.70;;;;;;5145830;27;20147;-71
2024/01/14 10:02:51;;;;;;;3.90;0.30;;;4.20;90.70;;;;;;5130362;27;20130;-72
2024/01/14 10:05:19;;;;;;;4.47;0.40;;;4.30;90.70;;;;;;5167619;27;20051;-71
2024/01/14 10:07:47;;;;;;;1.75;0.38;;;4.30;90.60;;;;;;5148213;27;20051;-71
2024/01/14 10:10:15;;;;;;;2.50;0.28;;;4.30;90.60;;;;;;5148645;27;20051;-71
2024/01/14 10:12:42;;;;;;;3.78;0.32;;;4.30;90.30;;;;;;5131376;27;20070;-70
2024/01/14 10:15:09;;;;;;;1.93;0.10;;;4.30;90.20;;;;;;5148917;27;20074;-71
2024/01/14 10:17:36;;;;;;;4.38;0.20;;;4.30;90.10;;;;;;5147088;27;21056;-70
2024/01/14 10:20:04;;;;;;;2.85;0.20;;;4.30;90.00;;;;;;5144598;27;20121;-74
2024/01/14 10:22:31;;;;;;;0.82;0.15;;;4.30;89.90;;;;;;5145919;27;20474;-71
2024/01/14 10:24:58;;;;;;;4.50;0.30;;;4.30;89.80;;;;;;5145874;27;20125;-72
2024/01/14 10:27:27;;;;;;;1.90;0.20;;;4.30;89.70;;;;;;5141579;27;20565;-71
2024/01/14 10:29:54;;;;;;;2.83;0.30;;;4.30;89.70;;;;;;5144006;27;20612;-73
2024/01/14 10:32:21;;;;;;;2.83;0.20;;;4.30;89.90;;;;;;5144896;27;20116;-70
2024/01/14 10:34:48;;;;;;;1.90;0.20;;;4.30;90.10;;;;;;5164964;27;20619;-73
2024/01/14 10:37:14;;;;;;;4.18;0.30;;;4.30;90.20;;;;;;5144038;27;20065;-72
2024/01/14 10:39:42;;;;;;;3.13;0.40;;;4.30;90.30;;;;;;5164786;27;20636;-71
2024/01/14 10:42:09;;;;;;;2.85;0.50;;;4.30;90.40;;;;;;5167156;27;20047;-70
2024/01/14 10:44:38;;;;;;;3.75;0.60;;;4.30;90.50;;;;;;5165067;27;20121;-70
2024/01/14 10:47:08;;;;;;;3.85;0.50;;;4.30;90.60;;;;;;5147785;27;20583;-72
2024/01/14 10:49:37;;;;;;;6.97;1.05;;;4.30;90.60;;;;;;5147669;27;20621;-70
2024/01/14 10:52:10;;;;;;;7.53;1.00;;;4.40;90.60;;;;;;5148680;27;20043;-72
2024/01/14 10:54:45;;;;;;;4.50;0.90;;;4.40;90.60;;;;;;5145789;27;20049;-72
2024/01/14 10:57:24;;;;;;;5.13;1.10;;;4.40;90.60;;;;;;5147938;27;20145;-70
2024/01/14 10:59:57;;;;;;;5.25;1.17;;;4.40;90.70;;;;;;5147957;27;20066;-73
2024/01/14 11:02:29;;;;;;;6.68;1.92;;;4.50;90.80;;;;;;5143631;27;20050;-71
2024/01/14 11:04:57;;;;;;;6.50;1.97;;;4.50;90.80;;;;;;5163396;27;20074;-71
2024/01/14 11:07:24;;;;;;;10.18;2.60;;;4.50;90.90;;;;;;5143471;27;20519;-72
2024/01/14 11:09:53;;;;;;;9.63;2.08;;;4.50;90.90;;;;;;5166135;27;20074;-71
2024/01/14 11:12:26;;;;;;;8.95;2.10;;;4.50;90.80;;;;;;5147611;27;20070;-70
2024/01/14 11:15:00;;;;;;;7.88;1.98;;;4.50;90.70;;;;;;5163639;27;20406;-71
2024/01/14 11:17:45;;;;;;;7.40;1.80;;;4.50;90.60;;;;;;5146416;27;20455;-72
2024/01/14 11:20:17;;;;;;;7.18;1.88;;;4.50;90.50;;;;;;5147589;27;20163;-72
2024/01/14 11:22:44;;;;;;;6.78;1.40;;;4.50;90.40;;;;;;5147275;27;20168;-73
2024/01/14 11:25:16;;;;;;;7.35;1.27;;;4.50;90.40;;;;;;5148161;27;20054;-71
2024/01/14 11:27:43;;;;;;;5.72;0.93;;;4.50;90.30;;;;;;5146480;27;20087;-71
2024/01/14 11:30:17;;;;;;;4.67;0.63;;;4.60;89.80;;;;;;5165006;27;20046;-71
2024/01/14 11:32:44;;;;;;;3.97;0.45;;;4.60;89.50;;;;;;5146634;27;20138;-73
2024/01/14 11:35:31;;;;;;;3.53;0.70;;;4.50;89.50;;;;;;5147927;27;20129;-70
2024/01/14 11:37:58;;;;;;;5.13;1.00;;;4.60;89.60;;;;;;5165188;27;20066;-71
2024/01/14 11:40:27;;;;;;;3.47;0.63;;;4.60;89.70;;;;;;5166174;27;20111;-72
2024/01/14 11:43:02;;;;;;;5.77;0.73;;;4.60;89.70;;;;;;5165259;27;20573;-74
2024/01/14 11:45:35;;;;;;;4.47;0.70;;;4.60;89.70;;;;;;5147903;27;20250;-72
2024/01/14 11:48:04;;;;;;;5.32;0.98;;;4.60;89.50;;;;;;5147849;27;20082;-70
2024/01/14 11:50:32;;;;;;;2.67;0.40;;;4.70;89.40;;;;;;5130956;27;20432;-71
2024/01/14 11:53:00;;;;;;;3.45;0.50;;;4.70;89.20;;;;;;5130996;27;20505;-71
2024/01/14 11:55:30;;;;;;;2.70;0.30;;;4.70;89.20;;;;;;5148075;27;20138;-70
2024/01/14 11:58:08;;;;;;;3.88;0.75;;;4.70;89.20;;;;;;5144552;27;20133;-73
2024/01/14 12:00:38;;;;;;;3.25;0.50;;;4.60;89.00;;;;;;5146572;27;20066;-73
2024/01/14 12:03:06;;;;;;;3.65;0.40;;;4.60;88.60;;;;;;5165798;27;20058;-72
2024/01/14 12:05:33;;;;;;;3.35;0.52;;;4.50;88.60;;;;;;5146983;27;20121;-73
2024/01/14 12:08:01;;;;;;;4.33;0.53;;;4.60;88.60;;;;;;5144220;27;20129;-72
2024/01/14 12:10:31;;;;;;;4.00;0.52;;;4.50;88.70;;;;;;5165300;27;20513;-72
2024/01/14 12:13:00;;;;;;;5.28;0.80;;;4.50;88.80;;;;;;5148321;27;20082;-71
2024/01/14 12:15:27;;;;;;;4.03;0.75;;;4.50;88.80;;;;;;5146437;27;20061;-71
2024/01/14 12:17:57;;;;;;;5.80;1.48;;;4.50;88.90;;;;;;5151476;27;20051;-71
2024/01/14 12:20:24;;;;;;;5.17;1.17;;;4.50;89.00;;;;;;5170856;27;20422;-71
2024/01/14 12:23:02;;;;;;;7.85;3.00;;;4.50;89.20;;;;;;5170654;27;20059;-71
2024/01/14 12:25:29;;;;;;;9.32;3.30;;;4.50;89.10;;;;;;5168002;27;20609;-71
2024/01/14 12:27:57;;;;;;;9.25;3.42;;;4.50;89.20;;;;;;5153596;27;20481;-72
2024/01/14 12:30:30;;;;;;;11.88;4.72;;;4.50;89.30;;;;;;5157212;27;20074;-72
2024/01/14 12:32:59;;;;;;;9.37;3.57;;;4.50;89.50;;;;;;5166447;27;20051;-72
2024/01/14 12:35:36;;;;;;;11.32;3.88;;;4.60;89.40;;;;;;5150919;27;20070;-72
2024/01/14 12:38:04;;;;;;;11.02;4.82;;;4.50;89.50;;;;;;5149627;27;20099;-72
2024/01/14 12:40:32;;;;;;;10.55;4.28;;;4.50;89.60;;;;;;5166292;27;20035;-72
2024/01/14 12:43:00;;;;;;;11.13;3.78;;;4.50;89.70;;;;;;5166842;27;20051;-72
2024/01/14 12:45:27;;;;;;;8.77;2.83;;;4.50;89.70;;;;;;5167109;27;20715;-72
2024/01/14 12:48:00;;;;;;;10.38;3.50;;;4.60;89.70;;;;;;5146797;27;20868;-72
2024/01/14 12:50:29;;;;;;;12.60;3.58;;;4.60;89.50;;;;;;5166967;27;20078;-72
2024/01/14 12:53:00;;;;;;;9.15;3.05;;;4.60;89.20;;;;;;5146006;27;20054;-72
2024/01/14 12:55:29;;;;;;;7.95;3.08;;;4.60;89.10;;;;;;5150667;27;20067;-72
2024/01/14 12:57:58;;;;;;;8.63;1.80;;;4.60;89.20;;;;;;5171241;27;20059;-72